createdAt,value
2022-09-16T00:03:08.135Z,21.78
2022-09-16T00:05:57.093Z,21.74
2022-09-16T00:08:45.857Z,21.71
2022-09-16T00:11:36.039Z,21.67
2022-09-16T00:14:24.794Z,21.63
2022-09-16T00:17:13.751Z,21.60
2022-09-16T00:20:03.121Z,21.56
2022-09-16T00:22:52.288Z,21.54
2022-09-16T00:25:41.861Z,21.51
2022-09-16T00:28:30.828Z,21.47
2022-09-16T00:31:20.303Z,21.44
2022-09-16T00:34:09.256Z,21.39
2022-09-16T00:36:58.111Z,21.35
2022-09-16T00:39:49.375Z,21.31
2022-09-16T00:42:41.971Z,21.24
2022-09-16T00:45:32.364Z,21.20
2022-09-16T00:48:24.436Z,21.15
2022-09-16T00:51:16.199Z,21.09
2022-09-16T00:54:09.288Z,21.03
2022-09-16T00:57:00.259Z,20.94
2022-09-16T00:59:52.918Z,20.89
2022-09-16T01:02:44.096Z,20.84
2022-09-16T01:05:34.358Z,20.80
2022-09-16T01:08:23.091Z,20.75
2022-09-16T01:11:12.672Z,20.69
2022-09-16T01:14:18.835Z,20.62
2022-09-16T01:17:20.079Z,20.57
2022-09-16T01:20:47.540Z,20.52
2022-09-16T01:24:07.424Z,20.47
2022-09-16T01:27:21.577Z,20.39
2022-09-16T01:30:57.096Z,20.33
2022-09-16T01:33:59.534Z,20.28
2022-09-16T01:36:56.862Z,20.25
2022-09-16T01:39:55.692Z,20.20
2022-09-16T01:42:55.466Z,20.18
2022-09-16T01:45:53.959Z,20.15
2022-09-16T01:48:45.043Z,20.10
2022-09-16T01:51:42.211Z,20.06
2022-09-16T01:54:36.049Z,20.03
2022-09-16T01:57:35.901Z,20.01
2022-09-16T02:00:25.273Z,20.01
2022-09-16T02:03:18.871Z,20.01
2022-09-16T02:06:10.969Z,20.01
2022-09-16T02:09:00.524Z,20.03
2022-09-16T02:11:54.627Z,20.02
2022-09-16T02:14:45.846Z,20.03
2022-09-16T02:17:41.763Z,20.05
2022-09-16T02:20:33.340Z,20.05
2022-09-16T02:23:25.835Z,20.07
2022-09-16T02:26:19.907Z,20.10
2022-09-16T02:29:14.601Z,20.12
2022-09-16T02:32:09.022Z,20.12
2022-09-16T02:34:59.278Z,20.10
2022-09-16T02:37:52.292Z,20.09
2022-09-16T02:40:47.440Z,20.09
2022-09-16T02:43:36.610Z,20.11
2022-09-16T02:46:38.059Z,20.13
2022-09-16T02:49:30.930Z,20.13
2022-09-16T02:52:30.317Z,20.13
2022-09-16T02:55:30.536Z,20.13
2022-09-16T02:58:20.524Z,20.14
2022-09-16T03:01:11.908Z,20.14
2022-09-16T03:04:01.525Z,20.14
2022-09-16T03:06:49.521Z,20.13
2022-09-16T03:09:41.643Z,20.14
2022-09-16T03:12:50.514Z,20.14
2022-09-16T03:15:55.920Z,20.14
2022-09-16T03:18:57.773Z,20.13
2022-09-16T03:21:55.690Z,20.15
2022-09-16T03:24:57.144Z,20.13
2022-09-16T03:27:51.387Z,20.13
2022-09-16T03:30:46.132Z,20.13
2022-09-16T03:33:39.568Z,20.13
2022-09-16T03:36:33.310Z,20.11
2022-09-16T03:39:23.449Z,20.10
2022-09-16T03:42:13.637Z,20.08
2022-09-16T03:45:02.594Z,20.08
2022-09-16T03:47:52.906Z,20.06
2022-09-16T03:50:41.750Z,20.06
2022-09-16T03:53:30.705Z,20.05
2022-09-16T03:56:19.869Z,20.04
2022-09-16T03:59:08.421Z,20.02
2022-09-16T04:01:58.130Z,20.01
2022-09-16T04:04:47.898Z,20.00
2022-09-16T04:07:36.529Z,19.98
2022-09-16T04:10:24.876Z,19.98
2022-09-16T04:13:13.632Z,19.98
2022-09-16T04:16:04.501Z,19.98
2022-09-16T04:18:53.396Z,19.98
2022-09-16T04:21:43.098Z,20.00
2022-09-16T04:24:32.369Z,19.99
2022-09-16T04:27:21.628Z,19.99
2022-09-16T04:30:14.026Z,19.99
2022-09-16T04:33:01.267Z,19.98
2022-09-16T04:35:49.818Z,19.98
2022-09-16T04:38:39.143Z,19.97
2022-09-16T04:41:28.759Z,19.98
2022-09-16T04:44:18.335Z,19.99
2022-09-16T04:47:08.116Z,19.99
2022-09-16T04:49:57.074Z,20.04
2022-09-16T04:52:45.828Z,20.05
2022-09-16T04:55:34.789Z,20.08
2022-09-16T04:58:23.750Z,20.14
2022-09-16T05:01:14.952Z,20.16
2022-09-16T05:04:06.934Z,20.22
2022-09-16T05:06:54.146Z,20.28
2022-09-16T05:09:43.483Z,20.34
2022-09-16T05:12:31.623Z,20.42
2022-09-16T05:15:20.991Z,20.49
2022-09-16T05:18:09.546Z,20.58
2022-09-16T05:21:00.351Z,20.70
2022-09-16T05:23:49.697Z,20.80
2022-09-16T05:26:41.996Z,20.89
2022-09-16T05:29:30.506Z,20.99
2022-09-16T05:32:19.677Z,21.08
2022-09-16T05:35:10.681Z,21.17
2022-09-16T05:37:59.430Z,21.27
2022-09-16T05:40:48.394Z,21.36
2022-09-16T05:43:38.170Z,21.46
2022-09-16T05:46:27.986Z,21.58
2022-09-16T05:49:20.138Z,21.69
2022-09-16T05:52:08.329Z,21.79
2022-09-16T05:54:56.894Z,21.89
2022-09-16T05:57:45.659Z,21.97
2022-09-16T06:00:34.801Z,22.07
2022-09-16T06:03:24.169Z,22.15
2022-09-16T06:06:19.052Z,22.23
2022-09-16T06:09:09.657Z,22.31
2022-09-16T06:12:02.088Z,22.39
2022-09-16T06:14:51.066Z,22.47
2022-09-16T06:17:40.644Z,22.56
2022-09-16T06:20:29.807Z,22.65
2022-09-16T06:23:19.546Z,22.71
2022-09-16T06:26:12.878Z,22.82
2022-09-16T06:29:01.400Z,22.89
2022-09-16T06:31:50.356Z,22.97
2022-09-16T06:34:39.531Z,23.07
2022-09-16T06:37:28.483Z,23.16
2022-09-16T06:40:17.925Z,23.24
2022-09-16T06:43:07.019Z,23.33
2022-09-16T06:45:59.337Z,23.42
2022-09-16T06:48:50.381Z,23.53
2022-09-16T06:51:39.229Z,23.64
2022-09-16T06:54:28.389Z,23.76
2022-09-16T06:57:19.775Z,23.88
2022-09-16T07:00:12.762Z,23.99
2022-09-16T07:03:04.038Z,24.13
2022-09-16T07:06:01.376Z,24.24
2022-09-16T07:08:50.391Z,24.37
2022-09-16T07:11:40.264Z,24.50
2022-09-16T07:14:32.443Z,24.66
2022-09-16T07:17:23.210Z,24.79
2022-09-16T07:20:13.848Z,24.92
2022-09-16T07:23:02.567Z,25.06
2022-09-16T07:26:01.770Z,25.20
2022-09-16T07:28:53.435Z,25.36
2022-09-16T07:31:42.775Z,25.50
2022-09-16T07:34:32.129Z,25.66
2022-09-16T07:37:20.594Z,25.81
2022-09-16T07:40:12.878Z,25.92
2022-09-16T07:43:01.878Z,26.09
2022-09-16T07:45:57.999Z,26.23
2022-09-16T07:48:49.515Z,26.36
2022-09-16T07:51:37.972Z,26.48
2022-09-16T07:54:26.932Z,26.62
2022-09-16T07:57:15.687Z,26.73
2022-09-16T08:00:10.517Z,26.83
2022-09-16T08:03:01.870Z,26.95
2022-09-16T08:05:51.170Z,27.05
2022-09-16T08:08:39.726Z,27.18
2022-09-16T08:11:33.601Z,27.31
2022-09-16T08:14:22.350Z,27.42
2022-09-16T08:17:11.314Z,27.53
2022-09-16T08:20:00.275Z,27.65
2022-09-16T08:22:49.643Z,27.79
2022-09-16T08:25:39.220Z,27.92
2022-09-16T08:28:39.761Z,28.03
2022-09-16T08:31:37.546Z,28.16
2022-09-16T08:34:26.579Z,28.26
2022-09-16T08:37:14.340Z,28.36
2022-09-16T08:40:05.171Z,28.44
2022-09-16T08:43:04.378Z,28.52
2022-09-16T08:45:59.694Z,28.62
2022-09-16T08:48:57.073Z,28.72
2022-09-16T08:51:46.964Z,28.79
2022-09-16T08:54:46.546Z,28.89
2022-09-16T08:57:41.673Z,29.02
2022-09-16T09:00:31.051Z,29.12
2022-09-16T09:03:37.361Z,29.20
2022-09-16T09:06:42.759Z,29.25
2022-09-16T09:09:51.186Z,29.34
2022-09-16T09:12:47.131Z,29.44
2022-09-16T09:15:43.111Z,29.58
2022-09-16T09:18:45.091Z,29.69
2022-09-16T09:21:43.264Z,29.79
2022-09-16T09:24:58.552Z,29.88
2022-09-16T09:27:54.935Z,29.97
2022-09-16T09:30:53.105Z,30.04
2022-09-16T09:36:55.447Z,30.25
2022-09-16T09:39:57.158Z,30.35
2022-09-16T09:42:52.358Z,30.44
2022-09-16T09:45:48.597Z,30.56
2022-09-16T09:48:42.963Z,30.63
2022-09-16T09:51:37.435Z,30.66
2022-09-16T09:54:29.704Z,30.70
2022-09-16T09:57:27.747Z,30.74
2022-09-16T10:00:20.962Z,30.77
2022-09-16T10:03:17.444Z,30.77
2022-09-16T10:06:07.903Z,30.77
2022-09-16T10:08:58.745Z,30.73
2022-09-16T10:11:50.137Z,30.73
2022-09-16T10:14:39.470Z,30.73
2022-09-16T10:17:31.245Z,30.76
2022-09-16T10:20:34.334Z,30.82
2022-09-16T10:23:29.605Z,30.87
2022-09-16T10:26:21.979Z,30.92
2022-09-16T10:29:18.960Z,30.98
2022-09-16T10:32:15.878Z,31.04
2022-09-16T10:35:09.692Z,31.10
2022-09-16T10:38:01.514Z,31.11
2022-09-16T10:40:57.413Z,31.11
2022-09-16T10:43:51.367Z,31.13
2022-09-16T10:46:52.380Z,31.15
2022-09-16T10:49:44.849Z,31.17
2022-09-16T10:52:41.398Z,31.19
2022-09-16T10:55:34.810Z,31.21
2022-09-16T10:58:23.003Z,31.22
2022-09-16T11:01:28.625Z,31.20
2022-09-16T11:05:00.879Z,31.24
2022-09-16T11:07:58.604Z,31.32
2022-09-16T11:11:16.330Z,31.37
2022-09-16T11:14:15.538Z,31.41
2022-09-16T11:17:25.744Z,31.44
2022-09-16T11:20:48.543Z,31.41
2022-09-16T11:23:50.567Z,31.34
2022-09-16T11:26:47.782Z,31.24
2022-09-16T11:30:01.507Z,31.21
2022-09-16T11:36:22.359Z,31.12
2022-09-16T11:39:27.013Z,31.10
2022-09-16T11:42:25.751Z,31.05
2022-09-16T11:45:27.564Z,31.00
2022-09-16T11:48:39.854Z,30.95
2022-09-16T11:51:50.796Z,30.87
2022-09-16T11:54:58.153Z,30.80
2022-09-16T11:57:50.787Z,30.77
2022-09-16T12:00:41.569Z,30.73
2022-09-16T12:03:38.379Z,30.66
2022-09-16T12:06:34.860Z,30.62
2022-09-16T12:09:33.816Z,30.58
2022-09-16T12:12:27.953Z,30.56
2022-09-16T12:15:21.220Z,30.49
2022-09-16T12:18:15.540Z,30.44
2022-09-16T12:21:09.618Z,30.40
2022-09-16T12:24:03.702Z,30.39
2022-09-16T12:26:57.547Z,30.35
2022-09-16T12:29:51.451Z,30.29
2022-09-16T12:32:49.830Z,30.24
2022-09-16T12:35:42.398Z,30.19
2022-09-16T12:38:31.649Z,30.17
2022-09-16T12:42:02.556Z,30.12
2022-09-16T12:45:11.238Z,30.11
2022-09-16T12:48:24.438Z,30.12
2022-09-16T12:51:30.714Z,30.12
2022-09-16T12:55:03.986Z,30.10
2022-09-16T12:58:15.801Z,30.08
2022-09-16T13:01:18.497Z,30.05
2022-09-16T13:04:17.693Z,30.02
2022-09-16T13:07:07.052Z,30.02
2022-09-16T13:10:05.377Z,29.99
2022-09-16T13:12:57.291Z,29.98
2022-09-16T13:15:57.762Z,29.97
2022-09-16T13:18:49.482Z,29.94
2022-09-16T13:21:44.017Z,29.95
2022-09-16T13:24:38.955Z,29.95
2022-09-16T13:27:31.308Z,29.93
2022-09-16T13:30:31.527Z,29.91
2022-09-16T13:33:29.434Z,29.88
2022-09-16T13:36:33.978Z,29.85
2022-09-16T13:39:34.442Z,29.84
2022-09-16T13:42:24.835Z,29.81
2022-09-16T13:45:32.291Z,29.79
2022-09-16T13:48:24.505Z,29.71
2022-09-16T13:51:19.453Z,29.68
2022-09-16T13:54:22.518Z,29.64
2022-09-16T13:57:40.353Z,29.61
2022-09-16T14:00:37.273Z,29.57
2022-09-16T14:03:57.746Z,29.54
2022-09-16T14:06:59.192Z,29.50
2022-09-16T14:09:59.686Z,29.47
2022-09-16T14:13:10.510Z,29.46
2022-09-16T14:16:00.375Z,29.40
2022-09-16T14:18:55.996Z,29.38
2022-09-16T14:21:44.202Z,29.36
2022-09-16T14:24:37.677Z,29.32
2022-09-16T14:27:33.663Z,29.26
2022-09-16T14:30:22.954Z,29.21
2022-09-16T14:33:13.759Z,29.16
2022-09-16T14:36:09.683Z,29.10
2022-09-16T14:39:00.891Z,29.05
2022-09-16T14:41:52.432Z,29.01
2022-09-16T14:44:47.638Z,28.97
2022-09-16T14:47:51.323Z,28.95
2022-09-16T14:50:44.343Z,28.93
2022-09-16T14:53:38.250Z,28.88
2022-09-16T14:56:27.425Z,28.86
2022-09-16T14:59:25.194Z,28.84
2022-09-16T15:02:21.967Z,28.80
2022-09-16T15:05:24.767Z,28.75
2022-09-16T15:08:20.104Z,28.70
2022-09-16T15:11:24.455Z,28.64
2022-09-16T15:14:25.403Z,28.58
2022-09-16T15:17:19.763Z,28.53
2022-09-16T15:20:21.713Z,28.49
2022-09-16T15:23:24.325Z,28.45
2022-09-16T15:26:16.948Z,28.42
2022-09-16T15:32:18.194Z,28.32
2022-09-16T15:35:19.075Z,28.25
2022-09-16T15:38:13.566Z,28.18
2022-09-16T15:41:12.977Z,28.11
2022-09-16T15:44:08.841Z,28.05
2022-09-16T15:46:58.266Z,27.99
2022-09-16T15:49:48.847Z,27.93
2022-09-16T15:52:55.162Z,27.90
2022-09-16T15:55:58.322Z,27.85
2022-09-16T15:58:48.923Z,27.80
2022-09-16T16:01:44.168Z,27.76
2022-09-16T16:04:34.984Z,27.71
2022-09-16T16:07:41.810Z,27.66
2022-09-16T16:10:32.335Z,27.62
2022-09-16T16:13:21.370Z,27.53
2022-09-16T16:16:11.688Z,27.49
2022-09-16T16:19:00.756Z,27.43
2022-09-16T16:21:49.279Z,27.39
2022-09-16T16:24:37.827Z,27.35
2022-09-16T16:27:26.787Z,27.29
2022-09-16T16:30:16.363Z,27.22
2022-09-16T16:33:07.921Z,27.16
2022-09-16T16:35:57.150Z,27.09
2022-09-16T16:38:46.022Z,27.02
2022-09-16T16:41:34.661Z,26.96
2022-09-16T16:44:25.462Z,26.89
2022-09-16T16:47:14.217Z,26.84
2022-09-16T16:50:03.206Z,26.77
2022-09-16T16:52:52.962Z,26.70
2022-09-16T16:55:41.509Z,26.63
2022-09-16T16:58:35.548Z,26.56
2022-09-16T17:01:24.606Z,26.50
2022-09-16T17:04:14.326Z,26.45
2022-09-16T17:07:24.580Z,26.40
2022-09-16T17:10:12.730Z,26.34
2022-09-16T17:13:01.073Z,26.29
2022-09-16T17:15:50.109Z,26.23
2022-09-16T17:18:40.380Z,26.17
2022-09-16T17:21:31.233Z,26.13
2022-09-16T17:24:20.602Z,26.06
2022-09-16T17:27:09.148Z,26.01
2022-09-16T17:30:00.569Z,25.96
2022-09-16T17:32:48.100Z,25.89
2022-09-16T17:35:36.853Z,25.85
2022-09-16T17:38:25.609Z,25.80
2022-09-16T17:41:16.237Z,25.76
2022-09-16T17:44:08.243Z,25.72
2022-09-16T17:46:57.594Z,25.67
2022-09-16T17:49:46.925Z,25.64
2022-09-16T17:52:36.335Z,25.59
2022-09-16T17:55:25.721Z,25.55
2022-09-16T17:58:15.295Z,25.48
2022-09-16T18:01:09.389Z,25.43
2022-09-16T18:03:58.454Z,25.37
2022-09-16T18:06:47.397Z,25.31
2022-09-16T18:09:36.663Z,25.26
2022-09-16T18:12:25.828Z,25.21
2022-09-16T18:15:15.200Z,25.17
2022-09-16T18:18:04.158Z,25.15
2022-09-16T18:20:55.795Z,25.12
2022-09-16T18:23:45.972Z,25.09
2022-09-16T18:26:35.341Z,25.06
2022-09-16T18:29:23.891Z,25.02
2022-09-16T18:32:12.646Z,24.97
2022-09-16T18:35:01.401Z,24.92
2022-09-16T18:37:50.196Z,24.87
2022-09-16T18:40:39.708Z,24.84
2022-09-16T18:43:28.695Z,24.78
2022-09-16T18:46:25.624Z,24.72
2022-09-16T18:49:17.060Z,24.65
2022-09-16T18:52:06.438Z,24.59
2022-09-16T18:54:54.979Z,24.52
2022-09-16T18:57:44.347Z,24.46
2022-09-16T19:00:34.330Z,24.40
2022-09-16T19:03:23.701Z,24.34
2022-09-16T19:06:12.046Z,24.26
2022-09-16T19:09:01.771Z,24.21
2022-09-16T19:11:52.395Z,24.16
2022-09-16T19:14:41.190Z,24.09
2022-09-16T19:17:30.777Z,24.04
2022-09-16T19:20:21.148Z,23.95
2022-09-16T19:23:09.905Z,23.89
2022-09-16T19:26:04.189Z,23.84
2022-09-16T19:28:53.353Z,23.80
2022-09-16T19:31:43.961Z,23.76
2022-09-16T19:34:32.501Z,23.72
2022-09-16T19:37:21.466Z,23.69
2022-09-16T19:40:11.198Z,23.66
2022-09-16T19:42:59.999Z,23.61
2022-09-16T19:45:49.181Z,23.59
2022-09-16T19:48:40.785Z,23.56
2022-09-16T19:51:32.610Z,23.53
2022-09-16T19:54:20.960Z,23.50
2022-09-16T19:57:09.712Z,23.45
2022-09-16T19:59:58.674Z,23.40
2022-09-16T20:02:47.672Z,23.35
2022-09-16T20:05:36.591Z,23.31
2022-09-16T20:08:25.144Z,23.26
2022-09-16T20:11:16.720Z,23.23
2022-09-16T20:14:11.388Z,23.20
2022-09-16T20:16:59.743Z,23.15
2022-09-16T20:19:49.582Z,23.11
2022-09-16T20:22:39.364Z,23.05
2022-09-16T20:25:27.915Z,23.01
2022-09-16T20:28:16.876Z,22.96
2022-09-16T20:31:06.885Z,22.92
2022-09-16T20:33:56.033Z,22.88
2022-09-16T20:36:46.165Z,22.84
2022-09-16T20:39:34.967Z,22.79
2022-09-16T20:42:24.134Z,22.76
2022-09-16T20:45:13.298Z,22.69
2022-09-16T20:48:02.874Z,22.66
2022-09-16T20:50:51.628Z,22.60
2022-09-16T20:53:41.613Z,22.54
2022-09-16T20:56:37.771Z,22.49
2022-09-16T20:59:27.528Z,22.44
2022-09-16T21:02:16.734Z,22.38
2022-09-16T21:05:07.865Z,22.34
2022-09-16T21:07:57.789Z,22.28
2022-09-16T21:10:47.457Z,22.22
2022-09-16T21:13:36.621Z,22.18
2022-09-16T21:16:28.684Z,22.11
2022-09-16T21:19:18.233Z,22.05
2022-09-16T21:22:07.190Z,22.01
2022-09-16T21:24:56.148Z,21.93
2022-09-16T21:27:44.698Z,21.88
2022-09-16T21:30:33.658Z,21.82
2022-09-16T21:33:22.209Z,21.77
2022-09-16T21:36:13.350Z,21.71
2022-09-16T21:39:01.630Z,21.66
2022-09-16T21:41:50.319Z,21.61
2022-09-16T21:44:39.286Z,21.54
2022-09-16T21:47:28.239Z,21.50
2022-09-16T21:50:18.393Z,21.45
2022-09-16T21:53:06.417Z,21.40
2022-09-16T21:56:02.842Z,21.30
2022-09-16T21:58:55.129Z,21.19
2022-09-16T22:01:43.732Z,21.11
2022-09-16T22:04:33.057Z,21.06
2022-09-16T22:07:21.657Z,20.96
2022-09-16T22:10:11.593Z,20.90
2022-09-16T22:13:00.758Z,20.85
2022-09-16T22:15:52.218Z,20.81
2022-09-16T22:18:41.939Z,20.75
2022-09-16T22:21:33.167Z,20.67
2022-09-16T22:24:21.803Z,20.61
2022-09-16T22:27:11.086Z,20.58
2022-09-16T22:30:00.250Z,20.54
2022-09-16T22:32:49.010Z,20.50
2022-09-16T22:35:37.761Z,20.44
2022-09-16T22:38:27.150Z,20.35
2022-09-16T22:41:17.685Z,20.27
2022-09-16T22:44:06.484Z,20.20
2022-09-16T22:46:55.683Z,20.15
2022-09-16T22:49:49.936Z,20.11
2022-09-16T22:52:38.486Z,20.07
2022-09-16T22:55:27.454Z,20.03
2022-09-16T22:58:16.407Z,19.96
2022-09-16T23:01:07.543Z,19.92
2022-09-16T23:03:58.029Z,19.89
2022-09-16T23:06:46.974Z,19.85
2022-09-16T23:09:36.341Z,19.82
2022-09-16T23:12:25.507Z,19.77
2022-09-16T23:15:14.269Z,19.75
2022-09-16T23:18:03.224Z,19.71
2022-09-16T23:20:59.440Z,19.67
2022-09-16T23:23:51.977Z,19.63
2022-09-16T23:26:40.756Z,19.58
2022-09-16T23:29:29.307Z,19.53
2022-09-16T23:32:18.261Z,19.49
2022-09-16T23:35:10.495Z,19.44
2022-09-16T23:37:57.414Z,19.40
2022-09-16T23:40:47.751Z,19.34
2022-09-16T23:43:37.566Z,19.28
2022-09-16T23:46:28.882Z,19.20
2022-09-16T23:49:19.805Z,19.17
2022-09-16T23:52:08.969Z,19.11
2022-09-16T23:54:57.316Z,19.06
2022-09-16T23:57:46.279Z,19.01
